TCX96Z EGCC-LGKO
Flight info
| Callsign | TCX96Z |
|---|---|
| Flight time | N/A |
| Altitude | 41000 |
| Route | SONEX UL975 DESIG L603 DOLAS DCT NAVPI DCT DODEN DCT NEGIX DCT DINKU DCT BESNI DCT LATLO DCT OBEDI DCT BERTA DCT TEBLI DCT TIVNU DCT MEDUX UM867 KOGAT DCT ERANA UL737 TSL UN130 MES UN139 LURUS L995 KOPAR |
| Aircraft | A332/H-SDE3GHIJ2J3J5M1RVWXY/LB2D1 |
Departure
| Time | 2026-05-05 07:56 |
|---|---|
| Airport | Manchester Airport (EGCC) |
Arrival
| Time | N/A |
|---|---|
| Airport | Kos International Airport "Ippokratis" (LGKO) |
| Time | Latitude | Longitude | Altitude | Speed | Heading |
|---|---|---|---|---|---|
| 2026-05-05 07:37 | 53.36458 | -2.27773 | 251 ft | 0 kts | 45° |
| 2026-05-05 07:43 | 53.36451 | -2.27783 | 251 ft | 4 kts | 45° |
| 2026-05-05 07:43 | 53.36432 | -2.27815 | 251 ft | 4 kts | 45° |
| 2026-05-05 07:43 | 53.36417 | -2.27841 | 251 ft | 4 kts | 50° |
| 2026-05-05 07:43 | 53.36407 | -2.27876 | 251 ft | 4 kts | 102° |
| 2026-05-05 07:44 | 53.36418 | -2.27910 | 251 ft | 4 kts | 135° |
| 2026-05-05 07:44 | 53.36438 | -2.27942 | 251 ft | 3 kts | 135° |
| 2026-05-05 07:44 | 53.36453 | -2.27967 | 251 ft | 4 kts | 135° |
| 2026-05-05 07:44 | 53.36461 | -2.27980 | 251 ft | 5 kts | 135° |
| 2026-05-05 07:46 | 53.36455 | -2.27972 | 251 ft | 3 kts | 135° |
| 2026-05-05 07:46 | 53.36435 | -2.27941 | 251 ft | 5 kts | 143° |
| 2026-05-05 07:47 | 53.36397 | -2.27941 | 251 ft | 6 kts | 206° |
| 2026-05-05 07:47 | 53.36353 | -2.27999 | 251 ft | 10 kts | 222° |
| 2026-05-05 07:47 | 53.36287 | -2.28064 | 251 ft | 12 kts | 199° |
| 2026-05-05 07:47 | 53.36207 | -2.28068 | 251 ft | 12 kts | 151° |
| 2026-05-05 07:48 | 53.36140 | -2.27972 | 251 ft | 14 kts | 137° |
| 2026-05-05 07:48 | 53.36071 | -2.27884 | 251 ft | 5 kts | 171° |
| 2026-05-05 07:48 | 53.36033 | -2.27905 | 251 ft | 7 kts | 201° |
| 2026-05-05 07:48 | 53.35984 | -2.27884 | 251 ft | 9 kts | 150° |
| 2026-05-05 07:49 | 53.35921 | -2.27851 | 251 ft | 11 kts | 176° |
| 2026-05-05 07:49 | 53.35851 | -2.27803 | 251 ft | 11 kts | 133° |
| 2026-05-05 07:49 | 53.35793 | -2.27699 | 251 ft | 13 kts | 135° |
| 2026-05-05 07:49 | 53.35714 | -2.27622 | 251 ft | 14 kts | 151° |
| 2026-05-05 07:50 | 53.35625 | -2.27530 | 253 ft | 14 kts | 142° |
| 2026-05-05 07:50 | 53.35599 | -2.27496 | 256 ft | 0 kts | 141° |
| 2026-05-05 07:50 | 53.35590 | -2.27482 | 258 ft | 10 kts | 140° |
| 2026-05-05 07:51 | 53.35465 | -2.27306 | 265 ft | 33 kts | 140° |
| 2026-05-05 07:51 | 53.35310 | -2.27197 | 258 ft | 24 kts | 183° |
| 2026-05-05 07:51 | 53.35180 | -2.27238 | 248 ft | 0 kts | 191° |
| 2026-05-05 07:51 | 53.35176 | -2.27239 | 248 ft | 2 kts | 191° |
| 2026-05-05 07:52 | 53.35171 | -2.27241 | 248 ft | 0 kts | 191° |
| 2026-05-05 07:53 | 53.35170 | -2.27241 | 248 ft | 1 kts | 191° |
| 2026-05-05 07:54 | 53.35146 | -2.27250 | 247 ft | 6 kts | 191° |
| 2026-05-05 07:54 | 53.35086 | -2.27270 | 245 ft | 11 kts | 191° |
| 2026-05-05 07:54 | 53.35007 | -2.27328 | 243 ft | 14 kts | 223° |
| 2026-05-05 07:54 | 53.34978 | -2.27384 | 243 ft | 0 kts | 231° |
| 2026-05-05 07:55 | 53.34978 | -2.27385 | 243 ft | 0 kts | 231° |
| 2026-05-05 07:55 | 53.34962 | -2.27417 | 243 ft | 18 kts | 231° |
| 2026-05-05 07:56 | 53.34717 | -2.27924 | 238 ft | 92 kts | 231° |
| 2026-05-05 07:56 | 53.34169 | -2.29058 | 222 ft | 156 kts | 230° |
| 2026-05-05 07:56 | 53.33407 | -2.30595 | 758 ft | 175 kts | 232° |
| 2026-05-05 07:56 | 53.32625 | -2.32186 | 1765 ft | 180 kts | 234° |
| 2026-05-05 07:57 | 53.31807 | -2.33980 | 2262 ft | 205 kts | 242° |
| 2026-05-05 07:57 | 53.31395 | -2.36338 | 2710 ft | 226 kts | 276° |
| 2026-05-05 07:57 | 53.32018 | -2.38806 | 3247 ft | 241 kts | 313° |
| 2026-05-05 07:57 | 53.33398 | -2.40387 | 4120 ft | 245 kts | 338° |
| 2026-05-05 07:58 | 53.35034 | -2.41311 | 5060 ft | 251 kts | 343° |
| 2026-05-05 07:58 | 53.36737 | -2.42143 | 6010 ft | 259 kts | 343° |
| 2026-05-05 07:58 | 53.38489 | -2.43012 | 6952 ft | 265 kts | 342° |
| 2026-05-05 07:58 | 53.40268 | -2.43925 | 7908 ft | 270 kts | 341° |
| 2026-05-05 07:59 | 53.42075 | -2.44876 | 8904 ft | 274 kts | 342° |
| 2026-05-05 07:59 | 53.43966 | -2.45459 | 9882 ft | 281 kts | 358° |
| 2026-05-05 07:59 | 53.45918 | -2.44798 | 10556 ft | 300 kts | 23° |
| 2026-05-05 07:59 | 53.47604 | -2.42509 | 10902 ft | 329 kts | 52° |
| 2026-05-05 08:00 | 53.48560 | -2.38888 | 11231 ft | 355 kts | 78° |
| 2026-05-05 08:00 | 53.48819 | -2.34668 | 11764 ft | 370 kts | 86° |
| 2026-05-05 08:00 | 53.48961 | -2.30301 | 12490 ft | 378 kts | 86° |
| 2026-05-05 08:00 | 53.49134 | -2.25858 | 13292 ft | 385 kts | 85° |
| 2026-05-05 08:01 | 53.49420 | -2.21361 | 14058 ft | 390 kts | 81° |
| 2026-05-05 08:01 | 53.49851 | -2.16837 | 14799 ft | 395 kts | 80° |
| 2026-05-05 08:01 | 53.50317 | -2.12254 | 15551 ft | 399 kts | 80° |
| 2026-05-05 08:01 | 53.50799 | -2.07640 | 16303 ft | 404 kts | 79° |
| 2026-05-05 08:02 | 53.51293 | -2.02958 | 16978 ft | 410 kts | 80° |
| 2026-05-05 08:02 | 53.51795 | -1.98204 | 17659 ft | 416 kts | 80° |
| 2026-05-05 08:02 | 53.52249 | -1.93377 | 18359 ft | 420 kts | 85° |
| 2026-05-05 08:02 | 53.52233 | -1.88454 | 18968 ft | 423 kts | 98° |
| 2026-05-05 08:03 | 53.51727 | -1.83569 | 19605 ft | 426 kts | 103° |
| 2026-05-05 08:03 | 53.51016 | -1.78721 | 20234 ft | 428 kts | 107° |
| 2026-05-05 08:03 | 53.50188 | -1.73906 | 20855 ft | 431 kts | 108° |
| 2026-05-05 08:03 | 53.49314 | -1.69145 | 21453 ft | 434 kts | 109° |
| 2026-05-05 08:04 | 53.48410 | -1.64301 | 22061 ft | 437 kts | 109° |
| 2026-05-05 08:04 | 53.47502 | -1.59416 | 22628 ft | 440 kts | 109° |
| 2026-05-05 08:04 | 53.46598 | -1.54497 | 23211 ft | 443 kts | 109° |
| 2026-05-05 08:04 | 53.45682 | -1.49463 | 23707 ft | 447 kts | 109° |
| 2026-05-05 08:05 | 53.44788 | -1.44518 | 24195 ft | 449 kts | 108° |
| 2026-05-05 08:05 | 53.43871 | -1.39431 | 24732 ft | 451 kts | 108° |
| 2026-05-05 08:05 | 53.42973 | -1.34449 | 25242 ft | 453 kts | 108° |
| 2026-05-05 08:05 | 53.42059 | -1.29393 | 25741 ft | 454 kts | 108° |
| 2026-05-05 08:06 | 53.41141 | -1.24319 | 26246 ft | 456 kts | 108° |
| 2026-05-05 08:06 | 53.40214 | -1.19210 | 26741 ft | 458 kts | 108° |
| 2026-05-05 08:06 | 53.39283 | -1.14096 | 27227 ft | 460 kts | 108° |
| 2026-05-05 08:06 | 53.38340 | -1.08941 | 27687 ft | 463 kts | 108° |
| 2026-05-05 08:07 | 53.37393 | -1.03780 | 28152 ft | 465 kts | 108° |
| 2026-05-05 08:07 | 53.36440 | -0.98596 | 28601 ft | 468 kts | 108° |
| 2026-05-05 08:07 | 53.35475 | -0.93367 | 28999 ft | 472 kts | 108° |
| 2026-05-05 08:07 | 53.34503 | -0.88111 | 29487 ft | 473 kts | 107° |
| 2026-05-05 08:08 | 53.33529 | -0.82857 | 30031 ft | 473 kts | 107° |